Zim Vancouver — A8LK5 — position and weather

sailwx.info

Track history (hours):
 
Tides and Currents Weather Stations Pressure Air Temp Water Temp Dewpoint Dewpoint Depression Visibility Wind Speed Wind Dir Waves Ship Positions

Zim Vancouver

Last reported at 2016-Sep-25 15:27 UTC. Time now 2016-Sep-26 12:19 UTC.
Position N 37°13' E 023°38'.

Length 260 m; draft 10.1 m.

Type: Ship. MMSI: 636013214.

Date/timePositionNaut miles runAvg speedWind from/ knotsBaromVisibWave heightAir tempDewpointWater temp
2016-Sep-25 15:27N 37°13' E 023°38'1314.5
2016-Sep-25 14:33N 37°26' E 023°41'2914.4
2016-Sep-25 12:34N 37°54' E 023°37'3 2.9
2016-Sep-25 11:30N 37°57' E 023°36'0 0.0
2016-Sep-25 10:30N 37°57' E 023°36'0 0.0
2016-Sep-25 09:33N 37°57' E 023°36'0 0.0
2016-Sep-25 07:33N 37°57' E 023°36'0 0.0
2016-Sep-25 04:33N 37°57' E 023°36'0 0.0
2016-Sep-25 00:33N 37°57' E 023°36'0 0.0
2016-Sep-24 22:33N 37°57' E 023°36'0 0.0
2016-Sep-24 21:33N 37°57' E 023°36'0 0.0
2016-Sep-24 19:33N 37°57' E 023°36'0 0.0
2016-Sep-24 18:33N 37°57' E 023°36'1 1.2
2016-Sep-24 17:34N 37°56' E 023°36'8 8.2
2016-Sep-24 16:33N 37°49' E 023°41'60714.7
2016-Sep-22 23:20N 32°57' E 034°34'24 8.6
2016-Sep-22 20:33N 32°49' E 035°01'0 0.0
2016-Sep-22 12:33N 32°49' E 035°01'0 0.0
2016-Sep-22 04:33N 32°49' E 035°01'0 0.0
2016-Sep-22 03:33N 32°49' E 035°01'0 0.0
2016-Sep-22 00:33N 32°49' E 035°01'0 0.0
2016-Sep-21 23:33N 32°49' E 035°01'0 0.0
2016-Sep-21 22:33N 32°49' E 035°01'0 0.0
2016-Sep-21 19:33N 32°49' E 035°01'0 0.0
2016-Sep-21 16:33N 32°49' E 035°01'6 0.9
2016-Sep-21 09:33N 32°53' E 034°55'7 6.4
2016-Sep-21 08:31N 32°48' E 034°50'3010.0
2016-Sep-21 05:33N 32°20' E 034°40'2010.1
2016-Sep-21 03:32N 32°00' E 034°33'10 7.3
2016-Sep-21 02:08N 31°51' E 034°38'1 0.1
2016-Sep-20 13:20N 31°50' E 034°39'7 2.5
2016-Sep-20 10:33N 31°52' E 034°31'3115.7
2016-Sep-20 08:33N 32°06' E 033°58'1717.4
2016-Sep-20 07:33N 32°14' E 033°40'1817.6
2016-Sep-20 06:33N 32°22' E 033°21'7117.8
2016-Sep-20 02:33N 32°57' E 032°07'6118.3
2016-Sep-19 23:15N 33°26' E 031°04'6718.2
2016-Sep-19 19:33N 33°57' E 029°52'10118.5
2016-Sep-19 14:07N 34°43' E 028°04'1218.6
2016-Sep-19 13:28N 34°49' E 027°51'18418.6
2016-Sep-19 03:33N 35°41' E 024°15'1919.1
2016-Sep-19 02:34N 35°44' E 023°52'42717.8
2016-Sep-18 02:33N 38°23' E 015°35'1818.1
2016-Sep-18 01:34N 38°37' E 015°20'1918.6
2016-Sep-18 00:33N 38°50' E 015°04'35518.7
2016-Sep-17 05:33N 43°30' E 010°13'6 5.6
2016-Sep-17 04:31N 43°34' E 010°18'0 0.0
2016-Sep-17 00:25N 43°34' E 010°18'0 0.0
2016-Sep-16 17:31N 43°34' E 010°18'0 0.0
2016-Sep-16 15:31N 43°34' E 010°18'0 0.0
2016-Sep-16 12:28N 43°34' E 010°18'0 0.0
2016-Sep-16 09:25N 43°34' E 010°18'0 0.0
2016-Sep-16 07:31N 43°34' E 010°18'7 1.8
2016-Sep-16 03:34N 43°29' E 010°12'1010.1
2016-Sep-16 02:33N 43°22' E 010°02'3115.3
2016-Sep-16 00:33N 43°12' E 009°23'  
Track history (hours):
 
Tides and Currents Weather Stations Pressure Air Temp Water Temp Dewpoint Dewpoint Depression Visibility Wind Speed Wind Dir Waves Ship Positions

Zim Vancouver

Last reported at 2016-Sep-25 15:27 UTC. Time now 2016-Sep-26 12:19 UTC.
Position N 37°13' E 023°38'.

Length 260 m; draft 10.1 m.

Type: Ship. MMSI: 636013214.

Date/timePositionNaut miles runAvg speedWind from/ knotsBaromVisibWave heightAir tempDewpointWater temp
2016-Sep-25 15:27N 37°13' E 023°38'1314.5
2016-Sep-25 14:33N 37°26' E 023°41'2914.4
2016-Sep-25 12:34N 37°54' E 023°37'3 2.9
2016-Sep-25 11:30N 37°57' E 023°36'0 0.0
2016-Sep-25 10:30N 37°57' E 023°36'0 0.0
2016-Sep-25 09:33N 37°57' E 023°36'0 0.0
2016-Sep-25 07:33N 37°57' E 023°36'0 0.0
2016-Sep-25 04:33N 37°57' E 023°36'0 0.0
2016-Sep-25 00:33N 37°57' E 023°36'0 0.0
2016-Sep-24 22:33N 37°57' E 023°36'0 0.0
2016-Sep-24 21:33N 37°57' E 023°36'0 0.0
2016-Sep-24 19:33N 37°57' E 023°36'0 0.0
2016-Sep-24 18:33N 37°57' E 023°36'1 1.2
2016-Sep-24 17:34N 37°56' E 023°36'8 8.2
2016-Sep-24 16:33N 37°49' E 023°41'60714.7
2016-Sep-22 23:20N 32°57' E 034°34'24 8.6
2016-Sep-22 20:33N 32°49' E 035°01'0 0.0
2016-Sep-22 12:33N 32°49' E 035°01'0 0.0
2016-Sep-22 04:33N 32°49' E 035°01'0 0.0
2016-Sep-22 03:33N 32°49' E 035°01'0 0.0
2016-Sep-22 00:33N 32°49' E 035°01'0 0.0
2016-Sep-21 23:33N 32°49' E 035°01'0 0.0
2016-Sep-21 22:33N 32°49' E 035°01'0 0.0
2016-Sep-21 19:33N 32°49' E 035°01'0 0.0
2016-Sep-21 16:33N 32°49' E 035°01'6 0.9
2016-Sep-21 09:33N 32°53' E 034°55'7 6.4
2016-Sep-21 08:31N 32°48' E 034°50'3010.0
2016-Sep-21 05:33N 32°20' E 034°40'2010.1
2016-Sep-21 03:32N 32°00' E 034°33'10 7.3
2016-Sep-21 02:08N 31°51' E 034°38'1 0.1
2016-Sep-20 13:20N 31°50' E 034°39'7 2.5
2016-Sep-20 10:33N 31°52' E 034°31'3115.7
2016-Sep-20 08:33N 32°06' E 033°58'1717.4
2016-Sep-20 07:33N 32°14' E 033°40'1817.6
2016-Sep-20 06:33N 32°22' E 033°21'7117.8
2016-Sep-20 02:33N 32°57' E 032°07'6118.3
2016-Sep-19 23:15N 33°26' E 031°04'6718.2
2016-Sep-19 19:33N 33°57' E 029°52'10118.5
2016-Sep-19 14:07N 34°43' E 028°04'1218.6
2016-Sep-19 13:28N 34°49' E 027°51'18418.6
2016-Sep-19 03:33N 35°41' E 024°15'1919.1
2016-Sep-19 02:34N 35°44' E 023°52'42717.8
2016-Sep-18 02:33N 38°23' E 015°35'1818.1
2016-Sep-18 01:34N 38°37' E 015°20'1918.6
2016-Sep-18 00:33N 38°50' E 015°04'35518.7
2016-Sep-17 05:33N 43°30' E 010°13'6 5.6
2016-Sep-17 04:31N 43°34' E 010°18'0 0.0
2016-Sep-17 00:25N 43°34' E 010°18'0 0.0
2016-Sep-16 17:31N 43°34' E 010°18'0 0.0
2016-Sep-16 15:31N 43°34' E 010°18'0 0.0
2016-Sep-16 12:28N 43°34' E 010°18'0 0.0
2016-Sep-16 09:25N 43°34' E 010°18'0 0.0
2016-Sep-16 07:31N 43°34' E 010°18'7 1.8
2016-Sep-16 03:34N 43°29' E 010°12'1010.1
2016-Sep-16 02:33N 43°22' E 010°02'3115.3
2016-Sep-16 00:33N 43°12' E 009°23'  

Dump ship's entire track history